Time;durP1;ratioP1;P1;durP2;ratioP2;P2;SDS_P1;SDS_P2;PMS_P1;PMS_P2;Temp;Humidity;BMP_temperature;BMP_pressure;BME280_temperature;BME280_humidity;BME280_pressure;Samples;Min_cycle;Max_cycle;Signal;HPM_P1;HPM_P2
2021/11/12 00:13:55;;;;;;;43.53;19.30;;;6.90;99.90;;;;;;4978145;28;20029;-67
2021/11/12 00:16:26;;;;;;;48.58;19.67;;;6.90;99.90;;;;;;4960211;28;20023;-67
2021/11/12 00:18:54;;;;;;;50.67;21.10;;;6.90;99.90;;;;;;4977758;28;20419;-67
2021/11/12 00:21:22;;;;;;;52.05;20.40;;;6.90;99.90;;;;;;4977856;28;20105;-67
2021/11/12 00:23:49;;;;;;;51.25;20.27;;;6.90;99.90;;;;;;4977812;28;20022;-67
2021/11/12 00:26:17;;;;;;;51.00;20.88;;;6.90;99.90;;;;;;4977699;28;20035;-68
2021/11/12 00:28:51;;;;;;;51.97;19.50;;;6.90;99.90;;;;;;4977459;28;20026;-68
2021/11/12 00:34:33;;;;;;;58.90;22.65;;;6.90;99.90;;;;;;4977426;28;20478;-67
2021/11/12 00:37:06;;;;;;;55.97;22.08;;;6.90;99.90;;;;;;4977557;28;20034;-67
2021/11/12 00:39:47;;;;;;;54.58;20.90;;;6.90;99.90;;;;;;4977954;28;20085;-67
2021/11/12 00:42:19;;;;;;;48.83;20.05;;;6.90;99.90;;;;;;4977956;28;20146;-67
2021/11/12 00:47:33;;;;;;;49.42;21.02;;;6.90;99.90;;;;;;4977656;28;20039;-68
2021/11/12 00:50:31;;;;;;;;;;;6.90;99.90;;;;;;4962955;28;20030;-68
2021/11/12 00:55:26;;;;;;;52.45;21.20;;;6.90;99.90;;;;;;4977782;28;20027;-67
2021/11/12 00:57:55;;;;;;;52.90;21.13;;;6.90;99.90;;;;;;4977551;28;20034;-68
2021/11/12 01:00:26;;;;;;;55.35;20.90;;;6.90;99.90;;;;;;4980144;28;20026;-68
2021/11/12 01:02:57;;;;;;;54.28;20.98;;;6.90;99.90;;;;;;4980476;28;20471;-67
2021/11/12 01:05:25;;;;;;;52.17;19.63;;;6.90;99.90;;;;;;4980851;28;20408;-68
2021/11/12 01:07:52;;;;;;;49.97;21.60;;;6.90;99.90;;;;;;4980927;28;20023;-68
2021/11/12 01:10:20;;;;;;;52.28;20.55;;;6.90;99.90;;;;;;4980286;28;20301;-68
2021/11/12 01:12:47;;;;;;;52.72;20.00;;;6.90;99.90;;;;;;4963103;28;20023;-68
2021/11/12 01:15:19;;;;;;;48.58;20.77;;;6.90;99.90;;;;;;4980406;28;20023;-68
2021/11/12 01:17:48;;;;;;;54.40;21.23;;;6.90;99.90;;;;;;4980023;28;20062;-68
2021/11/12 01:20:16;;;;;;;53.40;20.42;;;6.90;99.90;;;;;;4981515;28;20407;-68
2021/11/12 01:22:45;;;;;;;52.58;22.02;;;6.90;99.90;;;;;;4981302;28;20030;-68
2021/11/12 01:25:15;;;;;;;57.10;22.17;;;6.90;99.90;;;;;;4981105;28;20473;-68
2021/11/12 01:27:43;;;;;;;47.25;21.10;;;6.90;99.90;;;;;;4980766;28;20058;-68
2021/11/12 01:30:15;;;;;;;50.38;20.75;;;6.90;99.90;;;;;;4964054;28;20328;-68
2021/11/12 01:32:44;;;;;;;48.03;20.45;;;6.90;99.90;;;;;;4981376;28;20404;-68
2021/11/12 01:35:12;;;;;;;47.80;20.10;;;6.90;99.90;;;;;;4980876;28;20023;-68
2021/11/12 01:37:43;;;;;;;50.35;20.08;;;6.90;99.90;;;;;;4981153;28;20029;-68
2021/11/12 01:40:24;;;;;;;48.70;21.23;;;6.90;99.90;;;;;;4980119;28;20301;-68
2021/11/12 01:43:19;;;;;;;48.58;21.27;;;6.90;99.90;;;;;;4980275;28;20030;-68
2021/11/12 01:46:17;;;;;;;49.35;20.48;;;6.90;99.90;;;;;;4979559;28;20082;-68
2021/11/12 01:53:54;;;;;;;62.75;21.80;;;6.90;99.90;;;;;;4979985;28;20106;-68
2021/11/12 01:56:28;;;;;;;;;;;6.90;99.90;;;;;;4979681;28;20378;-68
2021/11/12 02:01:46;;;;;;;62.47;23.17;;;6.90;99.90;;;;;;4979958;28;20031;-68
2021/11/12 02:04:21;;;;;;;61.17;21.80;;;6.90;99.90;;;;;;4980136;28;20031;-68
2021/11/12 02:06:48;;;;;;;63.42;21.88;;;6.90;99.90;;;;;;4980098;28;20424;-68
2021/11/12 02:09:20;;;;;;;58.33;23.02;;;6.90;99.90;;;;;;4962893;28;20081;-68
2021/11/12 02:12:11;;;;;;;65.72;25.05;;;6.90;99.90;;;;;;4980062;28;20026;-67
2021/11/12 02:42:21;;;;;;;67.90;23.52;;;6.80;99.90;;;;;;4958091;29;20022;-68
2021/11/12 02:44:49;;;;;;;59.88;23.52;;;6.80;99.90;;;;;;4977490;28;20051;-68
2021/11/12 02:47:18;;;;;;;70.72;23.90;;;6.80;99.90;;;;;;4979190;28;20057;-68
2021/11/12 02:49:47;;;;;;;63.08;24.88;;;6.80;99.90;;;;;;4979364;28;20093;-68
2021/11/12 02:52:19;;;;;;;54.55;23.98;;;6.80;99.90;;;;;;4979333;28;20019;-68
2021/11/12 02:54:48;;;;;;;63.83;24.42;;;6.80;99.90;;;;;;4979466;28;20081;-68
2021/11/12 02:57:16;;;;;;;57.50;23.70;;;6.80;99.90;;;;;;4979191;28;20427;-68
2021/11/12 02:59:43;;;;;;;65.93;25.67;;;6.80;99.90;;;;;;4979750;28;20081;-67
2021/11/12 03:02:11;;;;;;;69.32;25.15;;;6.80;99.90;;;;;;4962025;28;20033;-68
2021/11/12 03:04:38;;;;;;;59.63;23.60;;;6.80;99.90;;;;;;4979182;28;20046;-68
2021/11/12 03:07:06;;;;;;;64.80;23.35;;;6.80;99.90;;;;;;4978374;28;20061;-68
2021/11/12 03:09:34;;;;;;;70.78;23.65;;;6.80;99.90;;;;;;4961024;28;20023;-68
2021/11/12 03:12:04;;;;;;;58.42;22.48;;;6.70;99.90;;;;;;4978795;28;20404;-68
2021/11/12 03:14:32;;;;;;;63.30;24.17;;;6.70;99.90;;;;;;4961086;28;20069;-68
2021/11/12 03:17:01;;;;;;;62.55;24.40;;;6.70;99.90;;;;;;4978051;28;20366;-67
2021/11/12 03:19:29;;;;;;;53.33;22.35;;;6.70;99.90;;;;;;4978442;28;20092;-68
2021/11/12 03:22:06;;;;;;;59.40;23.33;;;6.70;99.90;;;;;;4960707;28;20424;-68
2021/11/12 03:24:45;;;;;;;57.92;23.17;;;6.70;99.90;;;;;;4978630;28;20041;-68
2021/11/12 03:27:20;;;;;;;70.38;24.38;;;6.70;99.90;;;;;;4977752;28;20332;-69
2021/11/12 03:30:30;;;;;;;67.47;24.70;;;6.70;99.90;;;;;;4978763;28;20487;-67
2021/11/12 03:49:58;;;;;;;65.18;23.05;;;6.70;99.90;;;;;;4977996;28;20038;-68
2021/11/12 05:50:19;;;;;;;37.35;14.68;;;6.60;99.90;;;;;;4980474;28;20019;-68
2021/11/12 05:55:33;;;;;;;37.47;15.02;;;6.60;99.90;;;;;;4980814;28;20110;-68
2021/11/12 05:58:00;;;;;;;39.28;15.38;;;6.60;99.90;;;;;;4980483;28;20426;-68
2021/11/12 06:00:28;;;;;;;42.65;14.60;;;6.60;99.90;;;;;;4979479;28;20035;-68
2021/11/12 06:02:56;;;;;;;34.40;14.02;;;6.60;99.90;;;;;;4963069;28;20165;-68
2021/11/12 06:05:24;;;;;;;36.55;15.02;;;6.60;99.90;;;;;;4979258;28;20058;-68
2021/11/12 06:07:52;;;;;;;37.97;14.57;;;6.60;99.90;;;;;;4979778;28;20023;-68
2021/11/12 06:10:19;;;;;;;30.83;13.57;;;6.60;99.90;;;;;;4979738;28;20431;-68
2021/11/12 06:12:48;;;;;;;28.65;12.15;;;6.60;99.90;;;;;;4979631;28;20026;-68
2021/11/12 06:15:16;;;;;;;38.30;13.23;;;6.60;99.90;;;;;;4979635;28;20027;-68
2021/11/12 06:17:44;;;;;;;32.33;14.20;;;6.60;99.90;;;;;;4979611;28;20025;-68
2021/11/12 06:20:13;;;;;;;32.92;13.63;;;6.60;99.90;;;;;;4979296;28;20027;-68
2021/11/12 06:22:40;;;;;;;31.02;12.65;;;6.60;99.90;;;;;;4980090;28;20045;-68
2021/11/12 06:25:08;;;;;;;31.40;11.95;;;6.60;99.90;;;;;;4962684;28;20093;-68
2021/11/12 06:27:36;;;;;;;29.73;12.23;;;6.70;99.90;;;;;;4980222;28;20027;-68
2021/11/12 06:30:06;;;;;;;28.25;11.57;;;6.70;99.90;;;;;;4979791;28;20544;-68
2021/11/12 06:32:34;;;;;;;27.75;11.10;;;6.70;99.90;;;;;;4980303;28;20412;-68
2021/11/12 06:35:01;;;;;;;33.83;11.35;;;6.70;99.90;;;;;;4962493;28;20078;-68
2021/11/12 06:37:29;;;;;;;24.88;10.23;;;6.80;99.90;;;;;;4980285;28;20288;-68
2021/11/12 06:39:57;;;;;;;21.40;9.13;;;6.80;99.90;;;;;;4979625;28;20456;-68
2021/11/12 06:42:27;;;;;;;21.65;8.88;;;6.80;99.90;;;;;;4979157;28;20031;-68
2021/11/12 06:50:13;;;;;;;23.27;8.30;;;6.90;99.90;;;;;;4978531;28;20029;-68
2021/11/12 06:52:42;;;;;;;17.65;8.02;;;6.90;99.90;;;;;;4978476;28;20027;-68
2021/11/12 06:55:12;;;;;;;10.48;5.03;;;6.90;99.90;;;;;;4978258;28;20051;-68
2021/11/12 06:57:41;;;;;;;12.20;5.95;;;6.90;99.90;;;;;;4977701;28;20331;-67
2021/11/12 07:00:12;;;;;;;9.32;4.07;;;7.00;99.90;;;;;;4978289;28;20035;-68
2021/11/12 07:02:40;;;;;;;8.75;4.10;;;7.00;99.90;;;;;;4961197;28;20057;-68
2021/11/12 07:05:09;;;;;;;7.60;3.47;;;7.00;99.90;;;;;;4979296;28;20049;-75
2021/11/12 07:07:37;;;;;;;7.30;3.60;;;7.00;99.90;;;;;;4962016;28;20027;-76
2021/11/12 07:10:05;;;;;;;8.98;3.65;;;7.00;99.90;;;;;;4978993;28;20424;-75
2021/11/12 07:12:33;;;;;;;7.35;3.10;;;7.00;99.90;;;;;;4978378;28;20046;-75
2021/11/12 07:15:01;;;;;;;8.27;3.20;;;7.00;99.90;;;;;;4979163;28;20022;-75
2021/11/12 07:17:28;;;;;;;6.72;2.95;;;7.10;99.90;;;;;;4979123;28;20042;-75
2021/11/12 07:19:56;;;;;;;7.35;2.50;;;7.10;99.90;;;;;;4979007;28;20105;-75
2021/11/12 07:22:24;;;;;;;5.22;2.25;;;7.10;99.90;;;;;;4979690;28;20106;-75
2021/11/12 07:24:51;;;;;;;4.10;2.30;;;7.10;99.90;;;;;;4978434;28;20120;-75
2021/11/12 07:27:18;;;;;;;5.10;2.72;;;7.20;99.90;;;;;;4960771;28;20023;-75
2021/11/12 07:29:48;;;;;;;12.50;6.13;;;7.20;99.90;;;;;;4978514;28;20019;-75
2021/11/12 07:32:17;;;;;;;4.55;2.33;;;7.20;99.90;;;;;;4978606;28;20054;-74
2021/11/12 07:34:47;;;;;;;4.25;1.98;;;7.20;99.90;;;;;;4978011;28;20077;-75
2021/11/12 07:37:15;;;;;;;3.38;1.70;;;7.20;99.90;;;;;;4978401;28;20041;-77
2021/11/12 07:42:27;;;;;;;3.67;2.08;;;7.30;99.90;;;;;;4977979;28;20022;-73
2021/11/12 07:47:30;;;;;;;5.03;2.28;;;7.30;99.90;;;;;;4978165;28;20376;-74
2021/11/12 07:50:00;;;;;;;6.05;1.75;;;7.30;99.90;;;;;;4978622;28;20055;-76
2021/11/12 07:52:33;;;;;;;4.97;2.38;;;7.30;99.90;;;;;;4978841;28;20058;-76
2021/11/12 07:55:00;;;;;;;6.57;3.72;;;7.40;99.90;;;;;;4978595;28;20026;-74
2021/11/12 07:57:29;;;;;;;6.35;3.38;;;7.40;99.90;;;;;;4961432;28;20031;-73
2021/11/12 07:59:56;;;;;;;5.53;3.03;;;7.40;99.90;;;;;;4978574;28;20058;-72
2021/11/12 08:02:24;;;;;;;9.20;3.22;;;7.50;99.90;;;;;;4978886;28;20058;-75
2021/11/12 08:04:59;;;;;;;9.50;4.07;;;7.50;99.90;;;;;;4961190;28;20033;-74
2021/11/12 08:07:31;;;;;;;8.05;3.65;;;7.50;99.90;;;;;;4978171;28;20382;-70
2021/11/12 08:10:01;;;;;;;9.68;4.15;;;7.60;99.90;;;;;;4982065;28;20320;-70
2021/11/12 08:12:42;;;;;;;10.25;4.22;;;7.60;99.90;;;;;;4981514;28;20027;-71
2021/11/12 08:15:17;;;;;;;7.80;4.32;;;7.60;99.90;;;;;;4981360;28;20050;-66
2021/11/12 08:20:19;;;;;;;7.05;3.67;;;7.70;99.90;;;;;;4981144;28;20109;-68
2021/11/12 08:25:26;;;;;;;8.88;4.95;;;7.80;99.90;;;;;;4981475;28;20030;-71
2021/11/12 08:41:42;;;;;;;11.98;5.03;;;7.90;99.90;;;;;;4982035;28;20041;-68
2021/11/12 08:44:33;;;;;;;9.63;5.75;;;7.90;99.90;;;;;;4982216;28;20027;-67
2021/11/12 08:47:09;;;;;;;11.82;6.10;;;7.90;99.90;;;;;;4981417;28;20054;-68
2021/11/12 08:49:40;;;;;;;10.95;6.40;;;7.70;99.90;;;;;;4980879;28;20034;-68
2021/11/12 08:52:09;;;;;;;13.88;6.40;;;7.60;99.90;;;;;;4980996;28;20053;-69
2021/11/12 08:54:39;;;;;;;11.57;6.65;;;7.50;99.90;;;;;;4963506;28;20033;-69
2021/11/12 08:57:14;;;;;;;13.02;6.85;;;7.40;99.90;;;;;;4980900;28;20023;-68
2021/11/12 08:59:44;;;;;;;12.68;6.22;;;7.40;99.90;;;;;;4980408;28;20050;-68
2021/11/12 09:02:15;;;;;;;15.13;8.18;;;7.30;99.90;;;;;;4980707;28;20053;-68
2021/11/12 09:04:44;;;;;;;14.95;7.68;;;7.20;99.90;;;;;;4980604;28;20042;-68
2021/11/12 09:07:16;;;;;;;14.57;7.93;;;7.20;99.90;;;;;;4980395;28;20027;-68
2021/11/12 09:09:44;;;;;;;11.25;7.05;;;7.20;99.90;;;;;;4963260;28;20109;-68
2021/11/12 09:12:14;;;;;;;14.65;8.45;;;7.20;99.90;;;;;;4980905;28;20023;-68
2021/11/12 09:14:46;;;;;;;14.93;8.18;;;7.20;99.90;;;;;;4981088;28;20026;-68
2021/11/12 09:17:16;;;;;;;17.02;9.43;;;7.10;99.90;;;;;;4981022;28;20035;-68
2021/11/12 09:19:52;;;;;;;14.80;8.20;;;7.10;99.90;;;;;;4980251;28;20408;-68
2021/11/12 09:22:22;;;;;;;19.90;9.40;;;7.00;99.90;;;;;;4981266;28;20031;-68
2021/11/12 09:24:51;;;;;;;17.75;9.52;;;6.90;99.90;;;;;;4981472;28;20035;-68
2021/11/12 09:27:22;;;;;;;17.08;9.45;;;6.80;99.90;;;;;;4980757;28;20500;-68
2021/11/12 09:29:50;;;;;;;21.90;10.63;;;6.80;99.90;;;;;;4981156;28;20050;-67
2021/11/12 09:32:19;;;;;;;19.45;10.80;;;6.80;99.90;;;;;;4980660;28;20094;-68
2021/11/12 09:34:47;;;;;;;19.83;11.15;;;6.80;99.90;;;;;;4979840;28;20067;-68
2021/11/12 09:37:21;;;;;;;22.23;11.63;;;6.80;99.90;;;;;;4979847;28;20019;-68
2021/11/12 09:39:54;;;;;;;25.73;13.05;;;6.80;99.90;;;;;;4979816;28;20030;-68
2021/11/12 09:42:31;;;;;;;20.60;11.98;;;6.80;99.90;;;;;;4979788;28;20027;-67
2021/11/12 09:44:59;;;;;;;22.98;12.52;;;6.70;99.90;;;;;;4980227;28;20030;-67
2021/11/12 09:47:27;;;;;;;23.52;12.93;;;6.70;99.90;;;;;;4959204;29;20396;-69
2021/11/12 09:49:57;;;;;;;26.40;13.55;;;6.70;99.90;;;;;;4960433;28;20024;-68
2021/11/12 09:52:26;;;;;;;28.50;13.23;;;6.70;99.90;;;;;;4960248;29;20030;-68
2021/11/12 09:54:55;;;;;;;27.35;14.20;;;6.70;99.90;;;;;;4960938;28;20028;-68
2021/11/12 09:57:23;;;;;;;25.30;13.65;;;6.70;99.90;;;;;;4961743;29;20388;-68
2021/11/12 09:59:56;;;;;;;26.60;14.25;;;6.70;99.90;;;;;;4961517;29;20027;-68
2021/11/12 10:02:23;;;;;;;23.27;12.73;;;6.60;99.90;;;;;;4961239;29;20019;-68
2021/11/12 10:04:52;;;;;;;28.23;14.38;;;6.60;99.90;;;;;;4960964;28;20098;-68
2021/11/12 10:07:20;;;;;;;28.50;13.55;;;6.60;99.90;;;;;;4961121;29;20023;-68
2021/11/12 10:10:06;;;;;;;24.35;14.50;;;6.70;99.90;;;;;;4961248;29;20054;-68
2021/11/12 10:12:45;;;;;;;27.13;14.60;;;6.70;99.90;;;;;;4961006;29;20020;-68
2021/11/12 10:15:20;;;;;;;24.98;14.35;;;6.70;99.90;;;;;;4960919;29;20330;-68
2021/11/12 10:17:50;;;;;;;25.80;14.43;;;6.70;99.90;;;;;;4960146;28;20027;-68
2021/11/12 10:20:20;;;;;;;24.98;14.43;;;6.80;99.90;;;;;;4958757;28;20031;-68
2021/11/12 10:22:51;;;;;;;25.55;13.35;;;6.80;99.90;;;;;;4959871;29;20031;-68
2021/11/12 10:25:19;;;;;;;24.77;13.57;;;6.80;99.90;;;;;;4960622;28;20293;-68
2021/11/12 10:27:50;;;;;;;23.30;13.10;;;6.80;99.90;;;;;;4960393;29;20420;-68
2021/11/12 10:30:28;;;;;;;25.13;12.52;;;6.90;99.90;;;;;;4959885;28;20105;-68
2021/11/12 10:32:58;;;;;;;23.02;12.48;;;7.00;99.90;;;;;;4959628;29;20043;-68
2021/11/12 10:35:32;;;;;;;25.52;13.18;;;7.10;99.90;;;;;;4958485;28;20055;-68
2021/11/12 10:38:12;;;;;;;23.80;13.65;;;7.20;99.90;;;;;;4959917;29;20027;-68
2021/11/12 10:40:40;;;;;;;21.50;12.25;;;7.40;99.90;;;;;;4960327;29;20019;-68
2021/11/12 10:43:08;;;;;;;25.55;13.25;;;7.50;99.90;;;;;;4960697;29;20070;-68
2021/11/12 10:45:35;;;;;;;22.33;12.43;;;7.60;99.90;;;;;;4960085;28;20027;-68
2021/11/12 10:48:09;;;;;;;22.30;12.52;;;7.70;99.90;;;;;;4979858;28;20336;-68
2021/11/12 10:50:44;;;;;;;25.67;13.75;;;7.80;99.90;;;;;;4962268;28;20026;-68
2021/11/12 10:53:16;;;;;;;25.75;12.75;;;8.00;99.90;;;;;;4979374;28;20424;-68
2021/11/12 10:55:46;;;;;;;24.27;12.88;;;8.10;99.90;;;;;;4979891;28;20029;-68
2021/11/12 10:58:14;;;;;;;23.02;13.13;;;8.30;99.90;;;;;;4978942;28;20105;-68
2021/11/12 11:00:45;;;;;;;21.73;11.52;;;8.30;99.90;;;;;;4978646;28;20316;-68
2021/11/12 11:03:19;;;;;;;25.90;12.90;;;8.40;99.90;;;;;;4978491;28;20037;-68
2021/11/12 11:05:47;;;;;;;19.80;12.45;;;8.50;99.90;;;;;;4978211;28;20038;-69
2021/11/12 11:08:15;;;;;;;23.83;13.85;;;8.50;99.90;;;;;;4978758;28;20027;-68
2021/11/12 11:10:55;;;;;;;25.33;13.80;;;8.50;99.90;;;;;;4978773;28;20352;-68
2021/11/12 11:13:29;;;;;;;23.00;12.20;;;8.50;99.90;;;;;;4978302;28;20436;-68
2021/11/12 11:16:02;;;;;;;21.00;11.65;;;8.30;99.90;;;;;;4978649;28;20034;-69
2021/11/12 11:18:40;;;;;;;25.27;13.55;;;8.20;99.90;;;;;;4978607;28;20030;-68
2021/11/12 11:21:11;;;;;;;28.35;13.77;;;8.00;99.90;;;;;;4979636;28;20026;-66
2021/11/12 11:24:06;;;;;;;27.33;12.95;;;7.80;99.90;;;;;;4979493;28;20015;-68
2021/11/12 11:26:48;;;;;;;23.45;12.43;;;7.60;99.90;;;;;;4979172;28;20034;-70
2021/11/12 11:29:20;;;;;;;26.15;13.15;;;7.50;99.90;;;;;;4978915;28;20500;-69
2021/11/12 11:31:48;;;;;;;24.63;11.50;;;7.40;99.90;;;;;;4978910;28;20033;-69
2021/11/12 11:34:15;;;;;;;24.98;13.50;;;7.40;99.90;;;;;;4978731;28;20116;-68
2021/11/12 11:36:46;;;;;;;23.88;12.68;;;7.30;99.90;;;;;;4978842;28;20042;-67
2021/11/12 11:39:19;;;;;;;23.80;13.23;;;7.30;99.90;;;;;;4961563;28;20027;-69
2021/11/12 11:41:49;;;;;;;27.83;12.80;;;7.30;99.90;;;;;;4978559;28;20070;-69
2021/11/12 11:44:21;;;;;;;24.70;13.63;;;7.20;99.90;;;;;;4977422;28;20037;-69
2021/11/12 11:46:51;;;;;;;25.13;13.23;;;7.20;99.90;;;;;;4977582;28;20049;-69
2021/11/12 11:49:22;;;;;;;22.40;12.70;;;7.20;99.90;;;;;;4977565;28;20069;-69
2021/11/12 11:51:55;;;;;;;24.55;14.18;;;7.20;99.90;;;;;;4960815;28;20110;-69
2021/11/12 11:54:28;;;;;;;29.05;11.93;;;7.20;99.90;;;;;;4977679;28;20026;-69
2021/11/12 11:56:58;;;;;;;24.85;12.57;;;7.20;99.90;;;;;;4960482;28;20023;-68
2021/11/12 12:00:09;;;;;;;27.92;13.13;;;7.20;99.90;;;;;;4978135;28;20022;-68
2021/11/12 12:02:37;;;;;;;20.45;11.00;;;7.10;99.90;;;;;;4977509;28;20022;-68
2021/11/12 12:05:07;;;;;;;28.38;13.95;;;7.20;99.90;;;;;;4978332;28;20431;-68
2021/11/12 12:07:54;;;;;;;23.05;12.75;;;7.10;99.90;;;;;;4978933;28;20034;-68
2021/11/12 12:10:27;;;;;;;23.25;11.23;;;7.10;99.90;;;;;;4978604;28;20029;-68
2021/11/12 12:12:57;;;;;;;24.17;12.25;;;7.10;99.90;;;;;;4978934;28;20432;-68
2021/11/12 12:15:25;;;;;;;22.35;11.88;;;7.10;99.90;;;;;;4978846;28;20030;-70
2021/11/12 12:18:16;;;;;;;22.20;11.68;;;7.10;99.90;;;;;;4979027;28;20023;-68
2021/11/12 12:21:21;;;;;;;22.73;11.32;;;7.10;99.90;;;;;;4978741;28;20413;-68
2021/11/12 12:33:19;;;;;;;27.05;12.40;;;7.20;99.90;;;;;;4977847;28;20065;-68
2021/11/12 12:37:10;;;;;;;17.35;8.63;;;7.20;99.90;;;;;;4976663;28;20106;-68
2021/11/12 12:43:14;;;;;;;23.75;11.75;;;7.20;99.90;;;;;;4977778;28;20470;-68
2021/11/12 13:23:27;;;;;;;26.92;13.77;;;7.30;99.90;;;;;;4941795;29;20030;-68
2021/11/12 13:26:06;;;;;;;26.23;12.60;;;7.30;99.90;;;;;;4941967;29;20425;-68
2021/11/12 13:28:47;;;;;;;21.88;11.65;;;7.30;99.90;;;;;;4942102;29;20034;-68
2021/11/12 13:31:23;;;;;;;21.48;11.68;;;7.30;99.90;;;;;;4942543;29;20031;-68
2021/11/12 13:34:05;;;;;;;21.52;11.95;;;7.30;99.90;;;;;;4942373;29;20435;-68
2021/11/12 13:36:37;;;;;;;25.55;12.52;;;7.20;99.90;;;;;;4943408;29;20047;-68
2021/11/12 13:39:18;;;;;;;22.02;11.85;;;7.20;99.90;;;;;;4942417;29;20083;-68
2021/11/12 13:41:54;;;;;;;24.95;12.55;;;7.30;99.90;;;;;;4943177;29;20036;-68
2021/11/12 13:44:31;;;;;;;23.63;12.03;;;7.20;99.90;;;;;;4942836;29;20079;-68
2021/11/12 13:47:04;;;;;;;23.02;11.82;;;7.20;99.90;;;;;;4964073;28;20290;-68
2021/11/12 13:49:40;;;;;;;25.27;12.20;;;7.20;99.90;;;;;;4979807;28;20098;-68
2021/11/12 13:52:11;;;;;;;21.35;11.15;;;7.20;99.90;;;;;;4979698;28;20409;-68
2021/11/12 13:55:03;;;;;;;22.25;12.10;;;7.20;99.90;;;;;;4980171;28;20023;-68
2021/11/12 13:57:31;;;;;;;26.08;12.30;;;7.20;99.90;;;;;;4979807;28;20050;-68
2021/11/12 14:00:07;;;;;;;26.75;12.18;;;7.20;99.90;;;;;;4979920;28;20354;-68
2021/11/12 14:03:18;;;;;;;21.50;11.27;;;7.20;99.90;;;;;;4980144;28;20022;-68
2021/11/12 14:06:11;;;;;;;21.25;11.82;;;7.20;99.90;;;;;;4961960;28;20177;-68
2021/11/12 14:08:42;;;;;;;21.63;11.27;;;7.20;99.90;;;;;;4962270;28;20031;-68
2021/11/12 14:11:36;;;;;;;22.92;11.35;;;7.20;99.90;;;;;;4979662;28;20486;-68
2021/11/12 14:14:22;;;;;;;23.63;10.98;;;7.20;99.90;;;;;;4977330;28;20427;-68
2021/11/12 14:16:52;;;;;;;23.50;10.95;;;7.20;99.90;;;;;;4980325;28;20030;-68
2021/11/12 14:22:29;;;;;;;29.80;12.07;;;7.20;99.90;;;;;;4980318;28;20453;-68
2021/11/12 14:25:41;;;;;;;22.73;12.10;;;7.20;99.90;;;;;;4981524;28;20027;-68
2021/11/12 14:28:21;;;;;;;26.88;13.00;;;7.20;99.90;;;;;;4978558;28;20027;-68
2021/11/12 14:36:28;;;;;;;24.63;13.40;;;7.10;99.90;;;;;;4978952;28;20085;-68
2021/11/12 14:39:18;;;;;;;27.02;14.00;;;7.00;99.90;;;;;;4978792;28;20053;-68
2021/11/12 14:47:57;;;;;;;27.00;14.02;;;6.90;99.90;;;;;;4978607;28;20082;-68
2021/11/12 14:53:14;;;;;;;29.63;13.60;;;6.80;99.90;;;;;;4979089;28;20443;-68
2021/11/12 14:55:45;;;;;;;24.88;13.48;;;6.70;99.90;;;;;;4980014;28;20035;-68
2021/11/12 14:58:15;;;;;;;26.75;14.57;;;6.60;99.90;;;;;;4980143;28;20029;-68
2021/11/12 15:00:44;;;;;;;28.73;14.93;;;6.50;99.90;;;;;;4979419;28;20054;-68
2021/11/12 15:03:11;;;;;;;25.23;14.25;;;6.50;99.90;;;;;;4979382;28;20065;-68
2021/11/12 15:05:39;;;;;;;27.10;14.75;;;6.40;99.90;;;;;;4961997;28;20097;-68
2021/11/12 15:08:19;;;;;;;30.83;14.70;;;6.30;99.90;;;;;;4979286;28;20049;-68
2021/11/12 15:10:48;;;;;;;35.03;16.10;;;6.30;99.90;;;;;;4961808;28;20351;-68
2021/11/12 15:13:16;;;;;;;27.70;14.18;;;6.10;99.90;;;;;;4978848;28;20329;-68
2021/11/12 15:15:44;;;;;;;33.28;15.70;;;6.10;99.90;;;;;;4978055;28;20034;-68
2021/11/12 15:18:13;;;;;;;33.78;14.25;;;6.00;99.90;;;;;;4977502;28;20038;-68
2021/11/12 15:20:41;;;;;;;26.85;14.88;;;5.90;99.90;;;;;;4978400;28;20029;-68
2021/11/12 15:33:36;;;;;;;25.83;14.52;;;5.50;99.90;;;;;;4977869;28;20023;-68
2021/11/12 15:36:08;;;;;;;27.35;14.32;;;5.40;99.90;;;;;;4977859;28;20042;-69
2021/11/12 15:38:47;;;;;;;29.98;15.23;;;5.30;99.90;;;;;;4979490;28;20023;-69
2021/11/12 15:41:49;;;;;;;33.53;15.07;;;5.30;99.90;;;;;;4978515;28;20055;-69
2021/11/12 15:44:19;;;;;;;30.05;14.98;;;5.20;99.90;;;;;;4978365;28;20304;-68
2021/11/12 15:47:04;;;;;;;31.50;14.85;;;5.10;99.90;;;;;;4978318;28;20058;-68
2021/11/12 15:49:33;;;;;;;27.27;14.23;;;5.10;99.90;;;;;;4980022;28;20446;-69
2021/11/12 15:52:07;;;;;;;30.02;14.57;;;5.00;99.90;;;;;;4961466;28;20345;-73
2021/11/12 15:54:50;;;;;;;46.30;21.02;;;5.00;99.90;;;;;;4978788;28;20027;-71
2021/11/12 16:00:22;;;;;;;51.58;22.33;;;4.80;99.90;;;;;;4977707;28;20174;-71
2021/11/12 16:03:28;;;;;;;71.65;36.13;;;4.80;99.90;;;;;;4977319;28;20408;-73
2021/11/12 16:11:12;;;;;;;34.70;15.30;;;4.50;99.90;;;;;;4977720;28;20059;-73
2021/11/12 16:14:00;;;;;;;32.30;14.88;;;4.40;99.90;;;;;;4977443;28;20029;-73
2021/11/12 16:19:26;;;;;;;36.80;15.90;;;4.30;99.90;;;;;;4977373;28;20033;-68
2021/11/12 16:22:25;;;;;;;25.67;14.00;;;4.30;99.90;;;;;;4978828;28;20062;-67
2021/11/12 16:27:17;;;;;;;37.10;16.33;;;4.20;99.90;;;;;;4978260;28;20031;-67
2021/11/12 16:29:50;;;;;;;28.67;13.93;;;4.20;99.90;;;;;;4980798;28;20019;-67
2021/11/12 16:35:08;;;;;;;30.48;14.95;;;4.10;99.90;;;;;;4982106;28;20026;-67
2021/11/12 16:37:35;;;;;;;35.38;16.95;;;4.00;99.90;;;;;;4982020;28;20041;-67
2021/11/12 16:40:29;;;;;;;35.13;15.00;;;4.00;99.90;;;;;;4981737;28;20038;-67
2021/11/12 16:50:33;;;;;;;35.38;16.48;;;4.10;99.90;;;;;;4980736;28;20051;-67
2021/11/12 16:53:12;;;;;;;34.55;15.32;;;4.10;99.90;;;;;;4981317;28;20025;-66
2021/11/12 17:01:18;;;;;;;24.73;13.55;;;4.10;99.90;;;;;;4980632;28;20035;-67
2021/11/12 17:06:16;;;;;;;32.47;14.90;;;4.20;99.90;;;;;;4965707;28;20022;-66
2021/11/12 17:16:40;;;;;;;36.03;16.50;;;4.00;99.90;;;;;;4981786;28;20470;-67
2021/11/12 17:46:47;;;;;;;44.20;16.98;;;3.90;99.90;;;;;;4980556;28;20046;-67
2021/11/12 17:53:00;;;;;;;33.85;16.15;;;3.90;99.90;;;;;;4980960;28;20046;-66
2021/11/12 18:03:19;;;;;;;36.17;16.98;;;3.80;99.90;;;;;;4980751;28;20146;-66
2021/11/12 18:06:00;;;;;;;38.58;16.38;;;3.80;99.90;;;;;;4979986;28;20031;-66
2021/11/12 21:48:24;;;;;;;27.70;13.32;;;3.00;99.90;;;;;;4980100;28;20458;-66
2021/11/12 21:50:59;;;;;;;28.65;12.23;;;3.00;99.90;;;;;;4979946;28;20078;-67
2021/11/12 21:53:28;;;;;;;31.55;14.57;;;3.00;99.90;;;;;;4979764;28;20027;-66
2021/11/12 21:55:57;;;;;;;29.48;13.38;;;3.00;99.90;;;;;;4962560;28;20029;-66
2021/11/12 21:58:25;;;;;;;33.47;14.50;;;3.00;99.90;;;;;;4980184;28;20438;-66
2021/11/12 22:00:54;;;;;;;32.00;14.77;;;3.00;99.90;;;;;;4980568;28;20023;-67
2021/11/12 22:03:23;;;;;;;30.77;13.35;;;3.00;99.90;;;;;;4980984;28;20030;-67
2021/11/12 22:08:55;;;;;;;22.25;10.85;;;3.00;99.90;;;;;;4980461;28;20395;-67
2021/11/12 22:11:25;;;;;;;32.42;15.20;;;3.00;99.90;;;;;;4981003;28;20027;-66
2021/11/12 22:13:52;;;;;;;28.83;13.05;;;3.00;99.90;;;;;;4980281;28;20023;-67
2021/11/12 22:16:21;;;;;;;23.98;11.15;;;3.00;99.90;;;;;;4980877;28;20023;-67
2021/11/12 22:18:50;;;;;;;25.50;12.77;;;3.00;99.90;;;;;;4963774;28;20050;-67
2021/11/12 22:21:31;;;;;;;29.60;13.55;;;3.00;99.90;;;;;;4979662;28;20356;-66
2021/11/12 22:23:59;;;;;;;26.77;12.43;;;3.00;99.90;;;;;;4979162;28;20019;-66
2021/11/12 22:26:27;;;;;;;26.17;12.85;;;3.00;99.90;;;;;;4978971;28;20471;-67
2021/11/12 22:28:55;;;;;;;21.90;11.18;;;2.90;99.90;;;;;;4979104;28;20102;-67
2021/11/12 22:31:23;;;;;;;26.33;12.60;;;2.90;99.90;;;;;;4979601;28;20018;-66
2021/11/12 22:33:51;;;;;;;24.63;12.50;;;2.90;99.90;;;;;;4978768;28;20030;-67
2021/11/12 22:36:18;;;;;;;29.40;12.18;;;2.90;99.90;;;;;;4962052;28;20072;-67
2021/11/12 22:38:45;;;;;;;24.60;11.20;;;2.90;99.90;;;;;;4961689;28;20118;-67
2021/11/12 22:41:13;;;;;;;24.23;10.57;;;2.90;99.90;;;;;;4979630;28;20312;-66
2021/11/12 22:43:41;;;;;;;22.63;11.15;;;2.90;99.90;;;;;;4979312;28;20071;-66
2021/11/12 22:46:09;;;;;;;27.17;12.25;;;2.90;99.90;;;;;;4962748;28;20049;-67
2021/11/12 22:48:37;;;;;;;27.42;12.50;;;2.90;99.90;;;;;;4979497;28;20026;-66
2021/11/12 22:51:04;;;;;;;21.60;11.82;;;2.90;99.90;;;;;;4979822;28;20019;-67
2021/11/12 22:53:32;;;;;;;25.92;12.82;;;2.80;99.90;;;;;;4962707;28;20042;-66
2021/11/12 22:55:59;;;;;;;25.30;11.98;;;2.80;99.90;;;;;;4979588;28;20021;-66
2021/11/12 22:58:27;;;;;;;28.33;13.27;;;2.80;99.90;;;;;;4979920;28;20055;-66
2021/11/12 23:01:15;;;;;;;24.13;11.88;;;2.80;99.90;;;;;;4979408;28;20033;-67
2021/11/12 23:03:43;;;;;;;22.67;10.80;;;2.90;99.90;;;;;;4978699;28;20387;-66
2021/11/12 23:06:10;;;;;;;22.80;10.55;;;2.80;99.90;;;;;;4961500;28;20081;-66
2021/11/12 23:08:38;;;;;;;22.58;11.10;;;2.80;99.90;;;;;;4978745;28;20031;-66
2021/11/12 23:11:05;;;;;;;21.45;9.55;;;2.80;99.90;;;;;;4978323;28;20023;-66
2021/11/12 23:13:34;;;;;;;19.88;9.75;;;2.90;99.90;;;;;;4978143;28;20093;-66